Folsom, NM (88419)

2:20 PM MST on December 09, 2016 (GMT -0700)
Baca Valley | | Change Station

Elev 6645 ft 36.76 °N, 103.83 °W | Updated 1 minute ago

Clear
Clear
56.0 °F
Feels Like 56.0 °F
N
0.0
Wind Variable Wind from ESE
Gusts 10.0 mph

Today
High -- | Low -- °F
--% Chance of Precip.
Yesterday
High -- | Low -- °F
Precip. -- in
Pressure 30.10 in
Visibility 10.0 miles
Clouds Clear
Dew Point 24 °F
Humidity 29%
Rainfall Not available.
Snow Depth Not available.
6:57 AM 4:39 PM
Waxing Gibbous, 77% visible
METAR KRTN 092053Z AUTO 18007KT 10SM CLR 12/M06 A3012 RMK AO2 SLP193 T01171061 56018
Pressure 30.10 in
Visibility 10.0 miles
Clouds Clear
Dew Point 24 °F
Humidity 29%
Rainfall Not available.
Snow Depth Not available.
6:57 AM 4:39 PM
Waxing Gibbous, 77% visible
METAR KRTN 092053Z AUTO 18007KT 10SM CLR 12/M06 A3012 RMK AO2 SLP193 T01171061 56018

10-Day Weather Forecast

Almanac

Astronomy

Dec. 09, 2016 Rise Set
Actual Time
Civil Twilight
Nautical Twilight
Astronomical Twilight
Moon
Length of Visible Light
Length of Day
Tomorrow will be .
, % of the Moon is Illuminated

Today's Extremes

State Highs State Lows

Community

WunderPhotos

Upload Photos

1,956,517 photos uploaded!

WunderBlog® & News

Nearby

Air Quality

  Air Quality AQ Index Pollutant
Not available.

Snow Depth

Station Depth Elevation

Earthquake Activity

City Distance Mag. Time & Date
Minimum magnitude displayed is 2.5.

Coastal Water Temperatures

Place Temperature

Stations

Nearby Weather Stations

Station Location Temp. Windchill Dew Point Humidity Wind Precip. Elev Updated Type
                   

Watches & Warnings

There are currently no watches in effect.